createdAt,value
2023-05-25T00:43:05.871Z,97048.75
2023-05-25T00:45:33.420Z,97047.78
2023-05-25T00:48:01.985Z,97049.38
2023-05-25T00:50:38.332Z,97052.94
2023-05-25T00:53:06.474Z,97051.91
2023-05-25T00:55:38.087Z,97042.63
2023-05-25T00:58:08.984Z,97039.00
2023-05-25T01:00:38.752Z,97037.84
2023-05-25T01:03:12.511Z,97041.09
2023-05-25T01:05:45.026Z,97041.63
2023-05-25T01:08:14.806Z,97040.19
2023-05-25T01:10:44.125Z,97032.72
2023-05-25T01:13:15.586Z,97044.16
2023-05-25T01:15:43.361Z,97046.97
2023-05-25T01:18:15.090Z,97046.97
2023-05-25T01:20:55.053Z,97042.47
2023-05-25T01:23:29.822Z,97040.19
2023-05-25T01:26:02.370Z,97042.63
2023-05-25T01:28:36.160Z,97039.84
2023-05-25T01:31:04.332Z,97046.50
2023-05-25T01:33:33.022Z,97044.88
2023-05-25T01:36:02.414Z,97040.38
2023-05-25T01:38:29.965Z,97040.28
2023-05-25T01:40:57.558Z,97034.59
2023-05-25T01:43:25.115Z,97034.94
2023-05-25T01:46:03.612Z,97042.63
2023-05-25T01:48:38.597Z,97040.47
2023-05-25T01:51:16.114Z,97039.81
2023-05-25T01:53:46.733Z,97038.53
2023-05-25T01:56:15.525Z,97035.28
2023-05-25T01:58:44.629Z,97028.63
2023-05-25T02:01:15.923Z,97037.47
2023-05-25T02:03:44.811Z,97034.00
2023-05-25T02:06:13.801Z,97026.53
2023-05-25T02:08:41.373Z,97037.97
2023-05-25T02:11:08.930Z,97028.50
2023-05-25T02:13:36.519Z,97029.16
2023-05-25T02:16:04.321Z,97028.34
2023-05-25T02:18:32.064Z,97032.41
2023-05-25T02:20:59.625Z,97030.22
2023-05-25T02:23:28.527Z,97021.13
2023-05-25T02:25:56.149Z,97022.13
2023-05-25T02:28:23.729Z,97020.50
2023-05-25T02:30:51.516Z,97020.69
2023-05-25T02:33:20.248Z,97016.09
2023-05-25T02:35:47.891Z,97020.31
2023-05-25T02:38:15.637Z,97015.38
2023-05-25T02:40:46.970Z,97021.16
2023-05-25T02:43:14.537Z,97026.03
2023-05-25T02:45:42.197Z,97022.97
2023-05-25T02:48:09.914Z,97020.22
2023-05-25T02:50:37.510Z,97025.00
2023-05-25T02:53:05.575Z,97024.91
2023-05-25T02:55:33.330Z,97029.84
2023-05-25T02:58:02.255Z,97033.38
2023-05-25T03:00:29.802Z,97033.88
2023-05-25T03:02:57.375Z,97036.59
2023-05-25T03:05:24.935Z,97032.22
2023-05-25T03:07:52.667Z,97039.09
2023-05-25T03:10:20.620Z,97034.94
2023-05-25T03:12:48.192Z,97039.19
2023-05-25T03:15:17.247Z,97029.44
2023-05-25T03:17:44.874Z,97031.31
2023-05-25T03:20:15.517Z,97036.28
2023-05-25T03:22:43.230Z,97036.75
2023-05-25T03:25:12.449Z,97047.56
2023-05-25T03:27:40.090Z,97049.06
2023-05-25T03:30:09.194Z,97035.56
2023-05-25T03:32:38.097Z,97046.97
2023-05-25T03:35:06.527Z,97041.31
2023-05-25T03:37:34.485Z,97044.44
2023-05-25T03:40:02.405Z,97042.53
2023-05-25T03:42:29.971Z,97045.31
2023-05-25T03:44:57.481Z,97042.22
2023-05-25T03:47:25.066Z,97043.84
2023-05-25T03:49:53.979Z,97045.66
2023-05-25T03:52:21.528Z,97049.25
2023-05-25T03:54:50.006Z,97051.84
2023-05-25T03:57:17.559Z,97049.06
2023-05-25T03:59:45.172Z,97049.06
2023-05-25T04:02:12.705Z,97055.09
2023-05-25T04:04:41.897Z,97049.25
2023-05-25T04:07:10.929Z,97065.78
2023-05-25T04:09:38.480Z,97055.03
2023-05-25T04:12:06.454Z,97055.72
2023-05-25T04:14:34.006Z,97057.84
2023-05-25T04:17:01.565Z,97062.44
2023-05-25T04:19:29.099Z,97056.41
2023-05-25T04:21:56.840Z,97060.63
2023-05-25T04:24:25.746Z,97068.28
2023-05-25T04:26:53.352Z,97063.06
2023-05-25T04:29:21.596Z,97071.06
2023-05-25T04:31:49.632Z,97071.06
2023-05-25T04:34:17.218Z,97066.66
2023-05-25T04:36:45.197Z,97074.66
2023-05-25T04:39:12.899Z,97064.56
2023-05-25T04:41:43.053Z,97068.97
2023-05-25T04:44:10.747Z,97070.59
2023-05-25T04:46:38.993Z,97072.22
2023-05-25T04:49:08.490Z,97073.03
2023-05-25T04:51:36.976Z,97069.91
2023-05-25T04:54:04.788Z,97072.34
2023-05-25T04:56:32.429Z,97077.94
2023-05-25T04:59:01.298Z,97076.28
2023-05-25T05:01:29.172Z,97080.53
2023-05-25T05:03:57.103Z,97074.66
2023-05-25T05:06:25.694Z,97080.84
2023-05-25T05:08:53.248Z,97089.19
2023-05-25T05:11:20.807Z,97091.00
2023-05-25T05:13:48.413Z,97094.25
2023-05-25T05:16:17.386Z,97087.53
2023-05-25T05:18:45.008Z,97097.47
2023-05-25T05:21:12.577Z,97096.78
2023-05-25T05:23:40.181Z,97098.06
2023-05-25T05:26:10.957Z,97108.34
2023-05-25T05:28:38.578Z,97109.78
2023-05-25T05:31:06.829Z,97114.84
2023-05-25T05:33:35.971Z,97114.31
2023-05-25T05:36:04.767Z,97110.56
2023-05-25T05:38:32.350Z,97112.81
2023-05-25T05:41:00.085Z,97113.47
2023-05-25T05:43:27.794Z,97120.16
2023-05-25T05:45:55.482Z,97124.03
2023-05-25T05:48:23.101Z,97126.31
2023-05-25T05:50:52.729Z,97124.34
2023-05-25T05:53:20.825Z,97114.53
2023-05-25T05:55:49.535Z,97114.88
2023-05-25T05:58:19.359Z,97119.28
2023-05-25T06:00:46.904Z,97122.53
2023-05-25T06:03:14.560Z,97124.78
2023-05-25T06:05:42.323Z,97125.44
2023-05-25T06:08:11.778Z,97122.66
2023-05-25T06:10:39.442Z,97139.63
2023-05-25T06:13:07.851Z,97135.69
2023-05-25T06:15:35.923Z,97135.00
2023-05-25T06:18:03.702Z,97136.72
2023-05-25T06:20:31.417Z,97147.28
2023-05-25T06:22:59.010Z,97145.78
2023-05-25T06:25:27.914Z,97147.19
2023-05-25T06:27:55.842Z,97147.28
2023-05-25T06:30:23.408Z,97148.69
2023-05-25T06:32:50.946Z,97148.81
2023-05-25T06:35:19.862Z,97149.38
2023-05-25T06:37:48.825Z,97153.72
2023-05-25T06:40:16.853Z,97158.06
2023-05-25T06:42:45.779Z,97155.84
2023-05-25T06:45:14.395Z,97164.59
2023-05-25T06:47:41.963Z,97164.84
2023-05-25T06:50:10.536Z,97168.56
2023-05-25T06:52:38.123Z,97167.03
2023-05-25T06:55:12.944Z,97170.72
2023-05-25T06:57:49.467Z,97170.81
2023-05-25T07:00:24.903Z,97175.34
2023-05-25T07:03:09.114Z,97181.47
2023-05-25T07:05:45.274Z,97180.41
2023-05-25T07:08:20.916Z,97183.91
2023-05-25T07:11:01.598Z,97180.91
2023-05-25T07:13:38.036Z,97182.56
2023-05-25T07:16:11.380Z,97178.59
2023-05-25T07:19:13.902Z,97176.22
2023-05-25T07:21:53.489Z,97174.13
2023-05-25T07:35:14.742Z,97188.97
2023-05-25T07:37:53.855Z,97178.94
2023-05-25T07:40:30.845Z,97178.06
2023-05-25T07:43:12.613Z,97173.72
2023-05-25T07:45:47.015Z,97178.28
2023-05-25T07:48:14.685Z,97174.94
2023-05-25T07:50:42.326Z,97171.00
2023-05-25T07:53:11.227Z,97180.75
2023-05-25T07:55:38.757Z,97171.53
2023-05-25T07:58:07.545Z,97180.88
2023-05-25T08:00:35.160Z,97171.00
2023-05-25T08:03:03.559Z,97171.47
2023-05-25T08:05:31.259Z,97176.75
2023-05-25T08:07:59.105Z,97178.59
2023-05-25T08:10:32.148Z,97174.59
2023-05-25T08:13:02.285Z,97161.06
2023-05-25T08:15:29.840Z,97158.25
2023-05-25T08:17:57.578Z,97168.84
2023-05-25T08:20:26.009Z,97170.44
2023-05-25T08:22:54.462Z,97175.72
2023-05-25T08:25:22.336Z,97172.09
2023-05-25T08:27:51.279Z,97177.34
2023-05-25T08:30:18.923Z,97173.69
2023-05-25T08:32:46.572Z,97171.03
2023-05-25T08:35:14.953Z,97182.13
2023-05-25T08:37:43.353Z,97178.06
2023-05-25T08:40:15.829Z,97173.56
2023-05-25T08:42:43.772Z,97178.38
2023-05-25T08:45:26.387Z,97173.91
2023-05-25T08:48:02.583Z,97177.91
2023-05-25T08:50:32.511Z,97182.94
2023-05-25T08:53:06.407Z,97181.50
2023-05-25T08:55:37.773Z,97183.50
2023-05-25T08:58:11.496Z,97186.31
2023-05-25T09:00:46.146Z,97181.44
2023-05-25T09:03:19.027Z,97177.34
2023-05-25T09:05:47.267Z,97184.38
2023-05-25T09:08:17.687Z,97180.50
2023-05-25T09:10:45.436Z,97185.13
2023-05-25T09:13:22.123Z,97179.56
2023-05-25T09:15:52.967Z,97178.94
2023-05-25T09:18:20.922Z,97188.63
2023-05-25T09:20:50.428Z,97191.22
2023-05-25T09:23:18.271Z,97186.31
2023-05-25T09:25:47.480Z,97198.50
2023-05-25T09:30:45.874Z,97189.69
2023-05-25T09:33:17.969Z,97190.09
2023-05-25T09:35:46.618Z,97182.31
2023-05-25T09:38:16.374Z,97204.63
2023-05-25T09:40:44.821Z,97197.69
2023-05-25T09:43:21.838Z,97195.41
2023-05-25T09:45:53.688Z,97193.53
2023-05-25T09:48:23.105Z,97196.09
2023-05-25T09:50:50.983Z,97196.38
2023-05-25T09:53:18.749Z,97197.53
2023-05-25T09:55:53.790Z,97190.13
2023-05-25T09:58:24.756Z,97198.56
2023-05-25T10:00:55.486Z,97188.97
2023-05-25T10:03:24.763Z,97186.81
2023-05-25T10:05:53.258Z,97193.41
2023-05-25T10:08:23.429Z,97202.44
2023-05-25T10:10:51.354Z,97204.88
2023-05-25T10:13:21.908Z,97201.19
2023-05-25T10:15:53.080Z,97200.16
2023-05-25T10:18:26.391Z,97198.69
2023-05-25T10:21:01.969Z,97199.84
2023-05-25T10:23:36.676Z,97197.34
2023-05-25T10:26:08.716Z,97196.88
2023-05-25T10:28:38.447Z,97195.41
2023-05-25T10:31:06.517Z,97199.44
2023-05-25T10:33:38.251Z,97202.91
2023-05-25T10:36:11.271Z,97202.91
2023-05-25T10:38:40.937Z,97202.25
2023-05-25T10:41:11.038Z,97208.50
2023-05-25T10:43:39.303Z,97204.38
2023-05-25T10:46:07.991Z,97214.41
2023-05-25T10:48:40.922Z,97208.44
2023-05-25T10:51:11.094Z,97201.53
2023-05-25T10:53:39.753Z,97204.97
2023-05-25T10:56:10.520Z,97212.13
2023-05-25T10:58:42.630Z,97212.69
2023-05-25T11:01:12.403Z,97204.75
2023-05-25T11:03:54.738Z,97209.47
2023-05-25T11:06:23.830Z,97210.50
2023-05-25T11:08:54.755Z,97208.44
2023-05-25T11:11:23.268Z,97198.88
2023-05-25T11:13:51.471Z,97202.09
2023-05-25T11:16:24.474Z,97201.53
2023-05-25T11:18:57.715Z,97204.75
2023-05-25T11:21:44.013Z,97204.28
2023-05-25T11:24:16.673Z,97188.34
2023-05-25T11:26:55.971Z,97197.19
2023-05-25T11:29:26.864Z,97192.25
2023-05-25T11:31:55.942Z,97194.81
2023-05-25T11:34:26.000Z,97198.03
2023-05-25T11:37:01.616Z,97190.31
2023-05-25T11:39:29.832Z,97193.91
2023-05-25T11:42:02.608Z,97188.22
2023-05-25T11:44:31.543Z,97195.84
2023-05-25T11:47:02.975Z,97193.31
2023-05-25T11:49:31.835Z,97188.38
2023-05-25T11:51:59.396Z,97185.25
2023-05-25T11:54:28.980Z,97192.75
2023-05-25T11:56:59.495Z,97182.94
2023-05-25T11:59:29.788Z,97183.34
2023-05-25T12:02:00.162Z,97181.84
2023-05-25T12:04:28.041Z,97178.72
2023-05-25T12:07:04.324Z,97180.22
2023-05-25T12:09:32.269Z,97170.28
2023-05-25T12:12:00.744Z,97170.59
2023-05-25T12:14:28.394Z,97168.88
2023-05-25T12:16:56.341Z,97176.47
2023-05-25T12:19:24.167Z,97169.09
2023-05-25T12:21:52.174Z,97172.91
2023-05-25T12:24:21.272Z,97170.91
2023-05-25T12:26:49.691Z,97163.84
2023-05-25T12:29:17.572Z,97160.75
2023-05-25T12:31:45.170Z,97155.66
2023-05-25T12:34:13.988Z,97164.75
2023-05-25T12:36:43.776Z,97158.03
2023-05-25T12:39:12.609Z,97162.41
2023-05-25T12:41:50.664Z,97156.41
2023-05-25T12:44:25.161Z,97165.75
2023-05-25T12:46:55.144Z,97163.34
2023-05-25T12:49:31.367Z,97162.97
2023-05-25T12:52:00.049Z,97166.69
2023-05-25T12:54:40.798Z,97174.75
2023-05-25T12:57:11.317Z,97166.31
2023-05-25T12:59:39.844Z,97170.81
2023-05-25T13:02:08.298Z,97167.81
2023-05-25T13:04:36.919Z,97166.09
2023-05-25T13:07:04.770Z,97162.53
2023-05-25T13:09:32.866Z,97161.16
2023-05-25T13:12:00.624Z,97151.00
2023-05-25T13:14:30.861Z,97151.00
2023-05-25T13:16:58.464Z,97153.22
2023-05-25T13:19:26.929Z,97149.63
2023-05-25T13:21:55.967Z,97156.97
2023-05-25T13:24:24.260Z,97158.47
2023-05-25T13:26:51.847Z,97153.72
2023-05-25T13:29:19.708Z,97150.81
2023-05-25T13:31:48.742Z,97156.13
2023-05-25T13:34:16.471Z,97148.88
2023-05-25T13:36:44.051Z,97143.56
2023-05-25T13:39:13.547Z,97144.69
2023-05-25T13:41:41.847Z,97151.38
2023-05-25T13:44:11.091Z,97144.22
2023-05-25T13:46:38.764Z,97154.81
2023-05-25T13:49:07.872Z,97149.28
2023-05-25T13:51:35.792Z,97154.38
2023-05-25T13:54:04.256Z,97150.19
2023-05-25T13:56:32.347Z,97145.75
2023-05-25T14:01:28.528Z,97145.38
2023-05-25T14:03:57.805Z,97138.78
2023-05-25T14:06:27.014Z,97143.13
2023-05-25T14:08:54.629Z,97151.66
2023-05-25T14:11:28.158Z,97140.47
2023-05-25T14:13:56.473Z,97142.00
2023-05-25T14:16:24.019Z,97137.19
2023-05-25T14:18:51.638Z,97135.81
2023-05-25T14:21:19.225Z,97135.00
2023-05-25T14:23:48.158Z,97132.34
2023-05-25T14:26:15.680Z,97130.25
2023-05-25T14:28:43.248Z,97134.03
2023-05-25T14:31:12.344Z,97132.75
2023-05-25T14:33:42.179Z,97133.06
2023-05-25T14:36:10.629Z,97132.00
2023-05-25T14:38:38.224Z,97129.63
2023-05-25T14:41:07.132Z,97130.41
2023-05-25T14:43:34.954Z,97126.16
2023-05-25T14:46:02.557Z,97125.59
2023-05-25T14:48:30.161Z,97127.69
2023-05-25T14:50:59.143Z,97127.69
2023-05-25T14:53:26.715Z,97131.94
2023-05-25T14:55:54.262Z,97129.28
2023-05-25T14:58:23.191Z,97135.72
2023-05-25T15:00:50.979Z,97132.00
2023-05-25T15:03:18.969Z,97144.25
2023-05-25T15:05:46.879Z,97138.72
2023-05-25T15:08:14.547Z,97139.28
2023-05-25T15:10:42.140Z,97133.16
2023-05-25T15:13:10.861Z,97130.25
2023-05-25T15:15:41.745Z,97140.66
2023-05-25T15:18:09.414Z,97140.38
2023-05-25T15:20:37.150Z,97133.25
2023-05-25T15:23:04.799Z,97131.16
2023-05-25T15:25:47.801Z,97139.13
2023-05-25T15:28:15.615Z,97134.84
2023-05-25T15:30:44.508Z,97131.63
2023-05-25T15:33:14.253Z,97127.38
2023-05-25T15:35:42.045Z,97129.47
2023-05-25T15:38:09.678Z,97131.31
2023-05-25T15:40:37.680Z,97133.97
2023-05-25T15:43:05.290Z,97130.75
2023-05-25T15:45:32.886Z,97136.53
2023-05-25T15:48:01.816Z,97133.56
2023-05-25T15:50:29.385Z,97138.31
2023-05-25T15:52:56.977Z,97135.88
2023-05-25T15:55:24.572Z,97127.91
2023-05-25T15:57:52.116Z,97134.25
2023-05-25T16:00:20.284Z,97129.22
2023-05-25T16:02:47.863Z,97131.88
2023-05-25T16:05:16.808Z,97127.34
2023-05-25T16:07:44.363Z,97128.41
2023-05-25T16:10:12.129Z,97126.78
2023-05-25T16:12:39.774Z,97127.03
2023-05-25T16:15:08.167Z,97133.16
2023-05-25T16:17:35.736Z,97131.75
2023-05-25T16:20:03.392Z,97127.19
2023-05-25T16:22:32.345Z,97130.66
2023-05-25T16:27:27.364Z,97134.41
2023-05-25T16:29:54.926Z,97136.03
2023-05-25T16:32:22.547Z,97126.44
2023-05-25T16:34:50.481Z,97130.72
2023-05-25T16:37:18.051Z,97134.75
2023-05-25T16:39:46.982Z,97134.75
2023-05-25T16:42:14.525Z,97127.03
2023-05-25T16:44:42.068Z,97129.09
2023-05-25T16:49:37.118Z,97125.88
2023-05-25T16:52:05.069Z,97126.16
2023-05-25T16:54:32.631Z,97122.69
2023-05-25T16:57:01.695Z,97121.06
2023-05-25T16:59:29.257Z,97123.94
2023-05-25T17:01:56.938Z,97116.25
2023-05-25T17:04:24.517Z,97119.94
2023-05-25T17:06:52.038Z,97122.59
2023-05-25T17:09:19.571Z,97121.78
2023-05-25T17:11:47.103Z,97122.03
2023-05-25T17:14:16.377Z,97125.72
2023-05-25T17:16:43.965Z,97123.31
2023-05-25T17:19:14.751Z,97129.91
2023-05-25T17:21:42.756Z,97128.28
2023-05-25T17:24:10.736Z,97123.47
2023-05-25T17:26:38.289Z,97132.47
2023-05-25T17:29:06.189Z,97127.41
2023-05-25T17:31:35.504Z,97137.22
2023-05-25T17:34:03.178Z,97132.94
2023-05-25T17:36:30.802Z,97123.38
2023-05-25T17:38:58.589Z,97123.38
2023-05-25T17:41:26.335Z,97127.06
2023-05-25T17:43:53.952Z,97121.19
2023-05-25T17:46:21.649Z,97130.78
2023-05-25T17:48:50.635Z,97124.09
2023-05-25T17:51:20.700Z,97129.41
2023-05-25T17:53:48.329Z,97128.59
2023-05-25T17:56:15.901Z,97142.34
2023-05-25T17:58:47.232Z,97141.16
2023-05-25T18:01:15.786Z,97139.00
2023-05-25T18:03:43.682Z,97135.22
2023-05-25T18:06:12.708Z,97136.22
2023-05-25T18:08:40.363Z,97133.84
2023-05-25T18:11:07.964Z,97142.03
2023-05-25T18:13:35.542Z,97143.31
2023-05-25T18:16:03.308Z,97147.25
2023-05-25T18:18:31.252Z,97145.03
2023-05-25T18:20:59.331Z,97140.22
2023-05-25T18:23:28.423Z,97145.97
2023-05-25T18:25:56.154Z,97148.91
2023-05-25T18:28:23.795Z,97159.72
2023-05-25T18:30:51.461Z,97159.16
2023-05-25T18:33:19.043Z,97154.34
2023-05-25T18:35:47.086Z,97150.75
2023-05-25T18:38:14.851Z,97161.03
2023-05-25T18:40:43.743Z,97158.06
2023-05-25T18:43:11.610Z,97161.97
2023-05-25T18:45:39.250Z,97165.31
2023-05-25T18:48:08.170Z,97157.25
2023-05-25T18:50:35.962Z,97162.22
2023-05-25T18:53:03.569Z,97162.91
2023-05-25T18:55:31.163Z,97166.03
2023-05-25T18:58:00.091Z,97169.38
2023-05-25T19:00:27.701Z,97168.22
2023-05-25T19:02:55.367Z,97167.28
2023-05-25T19:05:24.232Z,97165.88
2023-05-25T19:07:58.924Z,97171.09
2023-05-25T19:10:27.457Z,97169.34
2023-05-25T19:12:55.213Z,97178.22
2023-05-25T19:15:24.141Z,97184.69
2023-05-25T19:17:52.078Z,97188.00
2023-05-25T19:20:19.764Z,97189.34
2023-05-25T19:22:47.680Z,97196.03
2023-05-25T19:25:15.312Z,97193.69
2023-05-25T19:27:42.883Z,97203.00
2023-05-25T19:30:10.874Z,97200.91
2023-05-25T19:32:39.803Z,97199.22
2023-05-25T19:35:07.835Z,97213.81
2023-05-25T19:37:37.115Z,97210.28
2023-05-25T19:40:06.325Z,97223.22
2023-05-25T19:42:33.921Z,97221.34
2023-05-25T19:45:01.495Z,97220.47
2023-05-25T19:47:29.136Z,97214.44
2023-05-25T19:49:58.105Z,97224.28
2023-05-25T19:52:25.690Z,97214.38
2023-05-25T19:54:53.224Z,97224.34
2023-05-25T19:57:20.866Z,97218.69
2023-05-25T19:59:50.031Z,97220.13
2023-05-25T22:37:44.460Z,97279.41
2023-05-25T22:40:13.243Z,97281.22
2023-05-25T22:42:40.806Z,97287.91
2023-05-25T22:45:09.415Z,97285.28
2023-05-25T22:47:37.409Z,97291.78
2023-05-25T22:50:18.958Z,97284.91
2023-05-25T22:52:52.942Z,97286.50
2023-05-25T22:55:28.943Z,97290.97
2023-05-25T22:58:02.786Z,97287.31
2023-05-25T23:00:40.720Z,97283.88
2023-05-25T23:03:21.080Z,97279.41
2023-05-25T23:06:00.036Z,97278.00
2023-05-25T23:08:46.246Z,97275.78
2023-05-25T23:11:29.118Z,97271.69
2023-05-25T23:14:08.525Z,97275.53
2023-05-25T23:16:46.792Z,97276.56
2023-05-25T23:19:25.151Z,97279.81
2023-05-25T23:22:13.658Z,97277.56
2023-05-25T23:24:49.345Z,97281.41
2023-05-25T23:27:28.486Z,97281.81
2023-05-25T23:30:04.861Z,97280.94
2023-05-25T23:32:41.276Z,97287.84
2023-05-25T23:35:19.450Z,97282.78
2023-05-25T23:37:52.678Z,97282.16
2023-05-25T23:40:32.140Z,97284.97
2023-05-25T23:43:05.982Z,97287.41
2023-05-25T23:45:49.876Z,97295.47
2023-05-25T23:48:27.890Z,97291.97
2023-05-25T23:51:06.033Z,97286.88
2023-05-25T23:53:44.039Z,97301.44
2023-05-25T23:56:25.051Z,97293.31
2023-05-25T23:59:03.487Z,97298.38
